sensor_id;sensor_type;location;lat;lon;timestamp;pressure;altitude;pressure_sealevel;temperature;humidity
71791;BME280;59638;52.126;5.434;2023-04-25T00:01:35;101223.97;;;4.39;100.00
71791;BME280;59638;52.126;5.434;2023-04-25T00:04:02;101225.84;;;4.37;100.00
71791;BME280;59638;52.126;5.434;2023-04-25T00:06:29;101233.25;;;4.29;100.00
71791;BME280;59638;52.126;5.434;2023-04-25T00:08:57;101235.13;;;4.27;100.00
71791;BME280;59638;52.126;5.434;2023-04-25T00:11:24;101235.13;;;4.27;100.00
71791;BME280;59638;52.126;5.434;2023-04-25T00:13:50;101241.03;;;4.30;100.00
71791;BME280;59638;52.126;5.434;2023-04-25T00:16:17;101243.00;;;4.41;100.00
71791;BME280;59638;52.126;5.434;2023-04-25T00:18:43;101233.53;;;4.54;100.00
71791;BME280;59638;52.126;5.434;2023-04-25T00:21:12;101244.41;;;4.62;100.00
71791;BME280;59638;52.126;5.434;2023-04-25T00:23:38;101242.06;;;4.72;100.00
71791;BME280;59638;52.126;5.434;2023-04-25T00:26:05;101246.28;;;4.75;100.00
71791;BME280;59638;52.126;5.434;2023-04-25T00:28:31;101245.38;;;4.76;100.00
71791;BME280;59638;52.126;5.434;2023-04-25T00:30:58;101245.16;;;4.79;100.00
71791;BME280;59638;52.126;5.434;2023-04-25T00:33:24;101244.22;;;4.80;100.00
71791;BME280;59638;52.126;5.434;2023-04-25T00:35:51;101245.75;;;4.84;100.00
71791;BME280;59638;52.126;5.434;2023-04-25T00:38:17;101247.44;;;4.85;100.00
71791;BME280;59638;52.126;5.434;2023-04-25T00:40:44;101242.28;;;4.83;100.00
71791;BME280;59638;52.126;5.434;2023-04-25T00:43:10;101247.59;;;4.82;100.00
71791;BME280;59638;52.126;5.434;2023-04-25T00:45:38;101253.00;;;4.79;100.00
71791;BME280;59638;52.126;5.434;2023-04-25T00:48:05;101253.22;;;4.76;100.00
71791;BME280;59638;52.126;5.434;2023-04-25T00:50:33;101248.88;;;4.75;100.00
71791;BME280;59638;52.126;5.434;2023-04-25T00:53:00;101251.50;;;4.75;100.00
71791;BME280;59638;52.126;5.434;2023-04-25T00:55:27;101251.50;;;4.75;100.00
71791;BME280;59638;52.126;5.434;2023-04-25T00:57:53;101249.72;;;4.75;100.00
71791;BME280;59638;52.126;5.434;2023-04-25T01:00:20;101244.59;;;4.74;100.00
71791;BME280;59638;52.126;5.434;2023-04-25T01:02:46;101257.03;;;4.70;100.00
71791;BME280;59638;52.126;5.434;2023-04-25T01:05:13;101248.59;;;4.65;100.00
71791;BME280;59638;52.126;5.434;2023-04-25T01:07:40;101257.47;;;4.62;100.00
71791;BME280;59638;52.126;5.434;2023-04-25T01:10:07;101242.16;;;4.56;100.00
71791;BME280;59638;52.126;5.434;2023-04-25T01:12:34;101252.94;;;4.50;100.00
71791;BME280;59638;52.126;5.434;2023-04-25T01:15:00;101252.19;;;4.48;100.00
71791;BME280;59638;52.126;5.434;2023-04-25T01:17:28;101258.69;;;4.41;100.00
71791;BME280;59638;52.126;5.434;2023-04-25T01:19:55;101260.75;;;4.36;100.00
71791;BME280;59638;52.126;5.434;2023-04-25T01:22:22;101259.22;;;4.32;100.00
71791;BME280;59638;52.126;5.434;2023-04-25T01:24:49;101267.50;;;4.24;100.00
71791;BME280;59638;52.126;5.434;2023-04-25T01:27:16;101260.25;;;4.14;100.00
71791;BME280;59638;52.126;5.434;2023-04-25T01:29:43;101275.19;;;4.12;100.00
71791;BME280;59638;52.126;5.434;2023-04-25T01:32:09;101281.69;;;4.04;100.00
71791;BME280;59638;52.126;5.434;2023-04-25T01:34:36;101274.28;;;3.97;100.00
71791;BME280;59638;52.126;5.434;2023-04-25T01:37:02;101272.06;;;3.89;100.00
71791;BME280;59638;52.126;5.434;2023-04-25T01:39:29;101275.69;;;3.87;100.00
71791;BME280;59638;52.126;5.434;2023-04-25T01:41:55;101276.53;;;3.87;100.00
71791;BME280;59638;52.126;5.434;2023-04-25T01:44:23;101281.34;;;3.79;100.00
71791;BME280;59638;52.126;5.434;2023-04-25T01:46:49;101285.03;;;3.75;100.00
71791;BME280;59638;52.126;5.434;2023-04-25T01:49:15;101274.59;;;3.75;100.00
71791;BME280;59638;52.126;5.434;2023-04-25T01:51:42;101281.66;;;3.73;100.00
71791;BME280;59638;52.126;5.434;2023-04-25T01:54:10;101280.13;;;3.69;100.00
71791;BME280;59638;52.126;5.434;2023-04-25T01:56:37;101288.31;;;3.63;100.00
71791;BME280;59638;52.126;5.434;2023-04-25T01:59:05;101292.94;;;3.58;100.00
71791;BME280;59638;52.126;5.434;2023-04-25T02:01:32;101295.88;;;3.51;100.00
71791;BME280;59638;52.126;5.434;2023-04-25T02:03:58;101292.56;;;3.48;100.00
71791;BME280;59638;52.126;5.434;2023-04-25T02:06:25;101295.28;;;3.46;100.00
71791;BME280;59638;52.126;5.434;2023-04-25T02:08:52;101295.09;;;3.49;100.00
71791;BME280;59638;52.126;5.434;2023-04-25T02:11:18;101301.09;;;3.51;100.00
71791;BME280;59638;52.126;5.434;2023-04-25T02:13:45;101297.13;;;3.44;100.00
71791;BME280;59638;52.126;5.434;2023-04-25T02:16:11;101294.22;;;3.33;100.00
71791;BME280;59638;52.126;5.434;2023-04-25T02:18:37;101302.38;;;3.27;100.00
71791;BME280;59638;52.126;5.434;2023-04-25T02:21:06;101310.38;;;3.24;100.00
71791;BME280;59638;52.126;5.434;2023-04-25T02:23:32;101301.09;;;3.18;100.00
71791;BME280;59638;52.126;5.434;2023-04-25T02:25:59;101304.94;;;3.11;100.00
71791;BME280;59638;52.126;5.434;2023-04-25T02:28:25;101304.41;;;3.05;100.00
71791;BME280;59638;52.126;5.434;2023-04-25T02:30:54;101302.13;;;2.98;100.00
71791;BME280;59638;52.126;5.434;2023-04-25T02:33:20;101310.16;;;2.94;100.00
71791;BME280;59638;52.126;5.434;2023-04-25T02:35:47;101309.47;;;2.90;100.00
71791;BME280;59638;52.126;5.434;2023-04-25T02:38:14;101306.19;;;2.87;100.00
71791;BME280;59638;52.126;5.434;2023-04-25T02:40:41;101304.63;;;2.83;100.00
71791;BME280;59638;52.126;5.434;2023-04-25T02:43:07;101305.66;;;2.80;100.00
71791;BME280;59638;52.126;5.434;2023-04-25T02:45:33;101314.38;;;2.79;100.00
71791;BME280;59638;52.126;5.434;2023-04-25T02:48:02;101310.00;;;2.80;100.00
71791;BME280;59638;52.126;5.434;2023-04-25T02:50:29;101309.00;;;2.82;100.00
71791;BME280;59638;52.126;5.434;2023-04-25T02:52:55;101301.88;;;2.86;100.00
71791;BME280;59638;52.126;5.434;2023-04-25T02:55:21;101305.97;;;2.91;100.00
71791;BME280;59638;52.126;5.434;2023-04-25T02:57:49;101305.47;;;3.00;100.00
71791;BME280;59638;52.126;5.434;2023-04-25T03:00:16;101305.94;;;3.09;100.00
71791;BME280;59638;52.126;5.434;2023-04-25T03:02:43;101315.28;;;3.13;100.00
71791;BME280;59638;52.126;5.434;2023-04-25T03:05:09;101320.28;;;3.17;100.00
71791;BME280;59638;52.126;5.434;2023-04-25T03:07:35;101314.06;;;3.20;100.00
71791;BME280;59638;52.126;5.434;2023-04-25T03:10:02;101321.47;;;3.27;100.00
71791;BME280;59638;52.126;5.434;2023-04-25T03:12:28;101311.88;;;3.28;100.00
71791;BME280;59638;52.126;5.434;2023-04-25T03:14:55;101308.53;;;3.26;100.00
71791;BME280;59638;52.126;5.434;2023-04-25T03:17:21;101310.53;;;3.21;100.00
71791;BME280;59638;52.126;5.434;2023-04-25T03:19:48;101319.50;;;3.15;100.00
71791;BME280;59638;52.126;5.434;2023-04-25T03:22:14;101319.75;;;3.11;100.00
71791;BME280;59638;52.126;5.434;2023-04-25T03:24:41;101324.09;;;3.10;100.00
71791;BME280;59638;52.126;5.434;2023-04-25T03:27:08;101325.03;;;3.09;100.00
71791;BME280;59638;52.126;5.434;2023-04-25T03:29:34;101330.78;;;3.16;100.00
71791;BME280;59638;52.126;5.434;2023-04-25T03:32:01;101334.16;;;3.18;100.00
71791;BME280;59638;52.126;5.434;2023-04-25T03:34:28;101333.16;;;3.20;100.00
71791;BME280;59638;52.126;5.434;2023-04-25T03:36:55;101331.38;;;3.21;100.00
71791;BME280;59638;52.126;5.434;2023-04-25T03:39:21;101336.47;;;3.24;100.00
71791;BME280;59638;52.126;5.434;2023-04-25T03:41:47;101334.22;;;3.34;100.00
71791;BME280;59638;52.126;5.434;2023-04-25T03:44:14;101333.06;;;3.39;100.00
71791;BME280;59638;52.126;5.434;2023-04-25T03:46:40;101343.00;;;3.48;100.00
71791;BME280;59638;52.126;5.434;2023-04-25T03:49:07;101341.75;;;3.55;100.00
71791;BME280;59638;52.126;5.434;2023-04-25T03:51:33;101346.50;;;3.65;100.00
71791;BME280;59638;52.126;5.434;2023-04-25T03:53:59;101346.19;;;3.71;100.00
71791;BME280;59638;52.126;5.434;2023-04-25T03:56:26;101341.53;;;3.76;100.00
71791;BME280;59638;52.126;5.434;2023-04-25T03:58:52;101344.66;;;3.82;100.00
71791;BME280;59638;52.126;5.434;2023-04-25T04:01:19;101341.69;;;3.90;100.00
71791;BME280;59638;52.126;5.434;2023-04-25T04:03:45;101350.09;;;3.95;100.00
71791;BME280;59638;52.126;5.434;2023-04-25T04:06:12;101350.78;;;3.99;100.00
71791;BME280;59638;52.126;5.434;2023-04-25T04:08:39;101347.97;;;4.02;100.00
71791;BME280;59638;52.126;5.434;2023-04-25T04:11:06;101351.28;;;4.05;100.00
71791;BME280;59638;52.126;5.434;2023-04-25T04:13:32;101358.03;;;4.09;100.00
71791;BME280;59638;52.126;5.434;2023-04-25T04:15:59;101356.00;;;4.15;100.00
71791;BME280;59638;52.126;5.434;2023-04-25T04:18:25;101358.47;;;4.18;100.00
71791;BME280;59638;52.126;5.434;2023-04-25T04:20:51;101362.00;;;4.17;100.00
71791;BME280;59638;52.126;5.434;2023-04-25T04:23:19;101362.66;;;4.20;100.00
71791;BME280;59638;52.126;5.434;2023-04-25T04:25:45;101370.41;;;4.22;100.00
71791;BME280;59638;52.126;5.434;2023-04-25T04:28:13;101358.03;;;4.25;100.00
71791;BME280;59638;52.126;5.434;2023-04-25T04:30:39;101359.06;;;4.23;100.00
71791;BME280;59638;52.126;5.434;2023-04-25T04:33:07;101364.09;;;4.26;100.00
71791;BME280;59638;52.126;5.434;2023-04-25T04:35:33;101365.97;;;4.24;100.00
71791;BME280;59638;52.126;5.434;2023-04-25T04:38:00;101370.06;;;4.28;100.00
71791;BME280;59638;52.126;5.434;2023-04-25T04:40:27;101373.28;;;4.33;100.00
71791;BME280;59638;52.126;5.434;2023-04-25T04:42:53;101376.66;;;4.35;100.00
71791;BME280;59638;52.126;5.434;2023-04-25T04:45:23;101373.88;;;4.38;100.00
71791;BME280;59638;52.126;5.434;2023-04-25T04:47:49;101382.31;;;4.43;100.00
71791;BME280;59638;52.126;5.434;2023-04-25T04:50:16;101380.44;;;4.45;100.00
71791;BME280;59638;52.126;5.434;2023-04-25T04:52:42;101392.44;;;4.49;100.00
71791;BME280;59638;52.126;5.434;2023-04-25T04:55:09;101382.03;;;4.48;100.00
71791;BME280;59638;52.126;5.434;2023-04-25T04:57:35;101387.88;;;4.53;100.00
71791;BME280;59638;52.126;5.434;2023-04-25T05:00:02;101388.56;;;4.56;100.00
71791;BME280;59638;52.126;5.434;2023-04-25T05:02:31;101396.97;;;4.61;100.00
71791;BME280;59638;52.126;5.434;2023-04-25T05:04:57;101397.53;;;4.67;100.00
71791;BME280;59638;52.126;5.434;2023-04-25T05:07:24;101401.84;;;4.68;100.00
71791;BME280;59638;52.126;5.434;2023-04-25T05:09:51;101405.16;;;4.71;100.00
71791;BME280;59638;52.126;5.434;2023-04-25T05:12:17;101404.91;;;4.76;100.00
71791;BME280;59638;52.126;5.434;2023-04-25T05:14:43;101415.25;;;4.77;100.00
71791;BME280;59638;52.126;5.434;2023-04-25T05:17:10;101415.34;;;4.76;100.00
71791;BME280;59638;52.126;5.434;2023-04-25T05:19:36;101420.75;;;4.73;100.00
71791;BME280;59638;52.126;5.434;2023-04-25T05:22:03;101416.25;;;4.75;100.00
71791;BME280;59638;52.126;5.434;2023-04-25T05:24:29;101427.31;;;4.80;100.00
71791;BME280;59638;52.126;5.434;2023-04-25T05:26:56;101430.53;;;4.85;100.00
71791;BME280;59638;52.126;5.434;2023-04-25T05:29:23;101427.91;;;4.85;100.00
71791;BME280;59638;52.126;5.434;2023-04-25T05:31:49;101428.41;;;4.91;100.00
71791;BME280;59638;52.126;5.434;2023-04-25T05:34:16;101435.06;;;4.97;100.00
71791;BME280;59638;52.126;5.434;2023-04-25T05:36:42;101430.22;;;5.05;100.00
71791;BME280;59638;52.126;5.434;2023-04-25T05:39:09;101441.19;;;5.12;100.00
71791;BME280;59638;52.126;5.434;2023-04-25T05:41:36;101439.81;;;5.21;100.00
71791;BME280;59638;52.126;5.434;2023-04-25T05:44:02;101439.44;;;5.27;100.00
71791;BME280;59638;52.126;5.434;2023-04-25T05:46:28;101431.25;;;5.33;100.00
71791;BME280;59638;52.126;5.434;2023-04-25T05:48:55;101437.66;;;5.43;100.00
71791;BME280;59638;52.126;5.434;2023-04-25T05:51:21;101445.53;;;5.57;100.00
71791;BME280;59638;52.126;5.434;2023-04-25T05:53:48;101445.75;;;5.68;100.00
71791;BME280;59638;52.126;5.434;2023-04-25T05:56:14;101453.41;;;5.71;100.00
71791;BME280;59638;52.126;5.434;2023-04-25T05:58:41;101457.16;;;5.82;100.00
71791;BME280;59638;52.126;5.434;2023-04-25T06:01:07;101463.16;;;5.84;100.00
71791;BME280;59638;52.126;5.434;2023-04-25T06:03:35;101461.94;;;5.89;100.00
71791;BME280;59638;52.126;5.434;2023-04-25T06:06:02;101458.53;;;6.03;100.00
71791;BME280;59638;52.126;5.434;2023-04-25T06:08:28;101469.38;;;6.11;100.00
71791;BME280;59638;52.126;5.434;2023-04-25T06:10:55;101467.31;;;6.16;100.00
71791;BME280;59638;52.126;5.434;2023-04-25T06:13:21;101474.81;;;6.22;100.00
71791;BME280;59638;52.126;5.434;2023-04-25T06:15:47;101478.91;;;6.26;100.00
71791;BME280;59638;52.126;5.434;2023-04-25T06:18:14;101483.72;;;6.34;100.00
71791;BME280;59638;52.126;5.434;2023-04-25T06:20:40;101483.59;;;6.50;100.00
71791;BME280;59638;52.126;5.434;2023-04-25T06:23:07;101470.91;;;6.98;100.00
71791;BME280;59638;52.126;5.434;2023-04-25T06:25:33;101472.69;;;7.89;100.00
71791;BME280;59638;52.126;5.434;2023-04-25T06:27:59;101471.41;;;8.08;98.52
71791;BME280;59638;52.126;5.434;2023-04-25T06:30:26;101466.38;;;7.79;99.60
71791;BME280;59638;52.126;5.434;2023-04-25T06:32:53;101469.09;;;7.78;99.30
71791;BME280;59638;52.126;5.434;2023-04-25T06:35:20;101476.38;;;7.87;97.90
71791;BME280;59638;52.126;5.434;2023-04-25T06:37:47;101472.69;;;7.89;97.05
71791;BME280;59638;52.126;5.434;2023-04-25T06:40:13;101470.78;;;7.91;95.82
71791;BME280;59638;52.126;5.434;2023-04-25T06:42:39;101481.09;;;8.07;96.14
71791;BME280;59638;52.126;5.434;2023-04-25T06:45:06;101481.81;;;7.97;96.48
71791;BME280;59638;52.126;5.434;2023-04-25T06:47:33;101480.25;;;7.81;99.95
71791;BME280;59638;52.126;5.434;2023-04-25T06:49:59;101487.19;;;7.82;99.17
71791;BME280;59638;52.126;5.434;2023-04-25T06:52:26;101488.44;;;7.89;99.12
71791;BME280;59638;52.126;5.434;2023-04-25T06:54:52;101481.94;;;7.82;100.00
71791;BME280;59638;52.126;5.434;2023-04-25T06:57:18;101488.22;;;7.67;100.00
71791;BME280;59638;52.126;5.434;2023-04-25T06:59:45;101492.22;;;7.85;99.54
71791;BME280;59638;52.126;5.434;2023-04-25T07:02:12;101489.50;;;8.12;96.13
71791;BME280;59638;52.126;5.434;2023-04-25T07:04:38;101496.34;;;8.40;96.11
71791;BME280;59638;52.126;5.434;2023-04-25T07:07:05;101496.66;;;8.49;95.46
71791;BME280;59638;52.126;5.434;2023-04-25T07:09:31;101497.59;;;8.35;96.61
71791;BME280;59638;52.126;5.434;2023-04-25T07:12:00;101507.81;;;8.39;93.09
71791;BME280;59638;52.126;5.434;2023-04-25T07:14:27;101508.13;;;8.22;97.13
71791;BME280;59638;52.126;5.434;2023-04-25T07:16:54;101505.41;;;8.36;94.77
71791;BME280;59638;52.126;5.434;2023-04-25T07:19:23;101509.38;;;8.29;95.14
71791;BME280;59638;52.126;5.434;2023-04-25T07:21:52;101521.03;;;8.25;95.29
71791;BME280;59638;52.126;5.434;2023-04-25T07:24:19;101523.16;;;8.20;95.33
71791;BME280;59638;52.126;5.434;2023-04-25T07:26:45;101524.31;;;8.16;96.08
71791;BME280;59638;52.126;5.434;2023-04-25T07:29:12;101526.81;;;9.05;94.79
71791;BME280;59638;52.126;5.434;2023-04-25T07:31:39;101521.84;;;10.64;91.50
71791;BME280;59638;52.126;5.434;2023-04-25T07:34:05;101526.63;;;10.81;86.69
71791;BME280;59638;52.126;5.434;2023-04-25T07:36:32;101524.00;;;10.70;85.15
71791;BME280;59638;52.126;5.434;2023-04-25T07:38:58;101527.22;;;10.28;87.42
71791;BME280;59638;52.126;5.434;2023-04-25T07:41:25;101520.41;;;10.26;83.92
71791;BME280;59638;52.126;5.434;2023-04-25T07:43:51;101529.72;;;10.19;87.47
71791;BME280;59638;52.126;5.434;2023-04-25T07:46:18;101530.03;;;10.03;92.17
71791;BME280;59638;52.126;5.434;2023-04-25T07:48:44;101538.78;;;9.92;91.80
71791;BME280;59638;52.126;5.434;2023-04-25T07:51:10;101545.31;;;10.22;88.31
71791;BME280;59638;52.126;5.434;2023-04-25T07:53:37;101545.78;;;10.16;89.76
71791;BME280;59638;52.126;5.434;2023-04-25T07:56:04;101556.75;;;9.87;91.53
71791;BME280;59638;52.126;5.434;2023-04-25T07:58:31;101549.56;;;9.89;86.23
71791;BME280;59638;52.126;5.434;2023-04-25T08:00:57;101561.09;;;9.99;83.72
71791;BME280;59638;52.126;5.434;2023-04-25T08:03:24;101559.22;;;10.13;89.51
71791;BME280;59638;52.126;5.434;2023-04-25T08:05:51;101559.75;;;10.29;85.83
71791;BME280;59638;52.126;5.434;2023-04-25T08:08:17;101566.72;;;10.97;90.56
71791;BME280;59638;52.126;5.434;2023-04-25T08:10:43;101568.81;;;11.14;84.91
71791;BME280;59638;52.126;5.434;2023-04-25T08:13:10;101559.88;;;11.38;81.20
71791;BME280;59638;52.126;5.434;2023-04-25T08:15:36;101571.41;;;11.37;81.00
71791;BME280;59638;52.126;5.434;2023-04-25T08:18:03;101560.06;;;11.78;78.94
71791;BME280;59638;52.126;5.434;2023-04-25T08:20:29;101572.91;;;12.76;76.69
71791;BME280;59638;52.126;5.434;2023-04-25T08:22:56;101572.13;;;13.64;79.96
71791;BME280;59638;52.126;5.434;2023-04-25T08:25:22;101580.78;;;12.97;71.22
71791;BME280;59638;52.126;5.434;2023-04-25T08:27:49;101608.25;;;10.73;84.57
71791;BME280;59638;52.126;5.434;2023-04-25T08:30:15;101611.69;;;9.21;91.29
71791;BME280;59638;52.126;5.434;2023-04-25T08:32:42;101609.56;;;8.64;88.94
71791;BME280;59638;52.126;5.434;2023-04-25T08:35:09;101612.84;;;8.42;88.60
71791;BME280;59638;52.126;5.434;2023-04-25T08:37:35;101607.47;;;8.57;86.45
71791;BME280;59638;52.126;5.434;2023-04-25T08:40:03;101615.56;;;8.66;87.67
71791;BME280;59638;52.126;5.434;2023-04-25T08:42:33;101615.63;;;8.90;84.37
71791;BME280;59638;52.126;5.434;2023-04-25T08:45:01;101621.53;;;8.94;86.11
71791;BME280;59638;52.126;5.434;2023-04-25T08:47:33;101622.09;;;9.23;83.71
71791;BME280;59638;52.126;5.434;2023-04-25T08:50:02;101621.13;;;9.61;78.70
71791;BME280;59638;52.126;5.434;2023-04-25T08:52:36;101626.47;;;9.72;77.59
71791;BME280;59638;52.126;5.434;2023-04-25T08:55:03;101618.09;;;10.82;74.25
71791;BME280;59638;52.126;5.434;2023-04-25T08:57:31;101626.88;;;11.48;76.26
71791;BME280;59638;52.126;5.434;2023-04-25T08:59:58;101623.19;;;12.36;71.78
71791;BME280;59638;52.126;5.434;2023-04-25T09:02:24;101622.41;;;14.71;64.97
71791;BME280;59638;52.126;5.434;2023-04-25T09:04:53;101616.84;;;16.70;62.20
71791;BME280;59638;52.126;5.434;2023-04-25T09:07:21;101617.53;;;17.89;56.46
71791;BME280;59638;52.126;5.434;2023-04-25T09:09:48;101624.72;;;17.72;57.21
71791;BME280;59638;52.126;5.434;2023-04-25T09:12:14;101629.81;;;18.71;53.09
71791;BME280;59638;52.126;5.434;2023-04-25T09:14:41;101637.41;;;17.20;55.97
71791;BME280;59638;52.126;5.434;2023-04-25T09:17:09;101640.44;;;18.16;54.22
71791;BME280;59638;52.126;5.434;2023-04-25T09:19:36;101639.44;;;17.26;54.00
71791;BME280;59638;52.126;5.434;2023-04-25T09:22:07;101642.09;;;17.26;52.78
71791;BME280;59638;52.126;5.434;2023-04-25T09:24:37;101652.84;;;15.68;54.65
71791;BME280;59638;52.126;5.434;2023-04-25T09:27:18;101668.16;;;13.58;62.92
71791;BME280;59638;52.126;5.434;2023-04-25T09:29:44;101672.59;;;12.14;72.26
71791;BME280;59638;52.126;5.434;2023-04-25T09:32:19;101673.06;;;11.22;73.26
71791;BME280;59638;52.126;5.434;2023-04-25T09:34:51;101677.34;;;10.55;77.17
71791;BME280;59638;52.126;5.434;2023-04-25T09:37:22;101681.78;;;10.44;72.91
71791;BME280;59638;52.126;5.434;2023-04-25T09:39:59;101682.66;;;11.56;72.45
71791;BME280;59638;52.126;5.434;2023-04-25T09:42:28;101689.34;;;11.60;72.41
71791;BME280;59638;52.126;5.434;2023-04-25T09:44:58;101691.56;;;11.44;73.25
71791;BME280;59638;52.126;5.434;2023-04-25T09:47:26;101693.44;;;10.52;73.52
71791;BME280;59638;52.126;5.434;2023-04-25T09:49:53;101707.44;;;9.70;74.37
71791;BME280;59638;52.126;5.434;2023-04-25T09:52:24;101716.59;;;9.40;78.14
71791;BME280;59638;52.126;5.434;2023-04-25T09:54:52;101727.56;;;9.34;76.44
71791;BME280;59638;52.126;5.434;2023-04-25T09:57:20;101729.78;;;9.40;76.33
71791;BME280;59638;52.126;5.434;2023-04-25T09:59:53;101728.31;;;9.23;75.04
71791;BME280;59638;52.126;5.434;2023-04-25T10:02:25;101729.78;;;9.40;77.11
71791;BME280;59638;52.126;5.434;2023-04-25T10:04:54;101738.81;;;9.86;74.34
71791;BME280;59638;52.126;5.434;2023-04-25T10:07:23;101733.44;;;10.11;75.13
71791;BME280;59638;52.126;5.434;2023-04-25T10:10:00;101730.94;;;11.02;72.35
71791;BME280;59638;52.126;5.434;2023-04-25T10:12:28;101720.94;;;12.69;66.88
71791;BME280;59638;52.126;5.434;2023-04-25T10:14:55;101715.72;;;14.58;61.38
71791;BME280;59638;52.126;5.434;2023-04-25T10:17:21;101714.88;;;15.14;60.40
71791;BME280;59638;52.126;5.434;2023-04-25T10:19:48;101711.13;;;15.89;58.07
71791;BME280;59638;52.126;5.434;2023-04-25T10:22:34;101703.06;;;16.78;55.27
71791;BME280;59638;52.126;5.434;2023-04-25T10:25:02;101708.84;;;15.94;52.80
71791;BME280;59638;52.126;5.434;2023-04-25T10:27:32;101710.13;;;15.08;57.54
71791;BME280;59638;52.126;5.434;2023-04-25T10:30:02;101722.56;;;14.51;56.69
71791;BME280;59638;52.126;5.434;2023-04-25T10:32:32;101699.91;;;15.40;55.06
71791;BME280;59638;52.126;5.434;2023-04-25T10:35:19;101712.75;;;15.17;53.27
71791;BME280;59638;52.126;5.434;2023-04-25T10:38:00;101710.78;;;15.19;56.77
71791;BME280;59638;52.126;5.434;2023-04-25T10:40:29;101709.75;;;15.30;53.43
71791;BME280;59638;52.126;5.434;2023-04-25T10:46:01;101721.31;;;14.35;53.84
71791;BME280;59638;52.126;5.434;2023-04-25T10:48:29;101716.13;;;14.05;56.74
71791;BME280;59638;52.126;5.434;2023-04-25T10:51:12;101715.88;;;14.47;54.80
71791;BME280;59638;52.126;5.434;2023-04-25T10:53:44;101705.78;;;16.87;50.58
71791;BME280;59638;52.126;5.434;2023-04-25T10:56:18;101701.44;;;17.20;47.42
71791;BME280;59638;52.126;5.434;2023-04-25T10:58:45;101704.19;;;17.86;46.62
71791;BME280;59638;52.126;5.434;2023-04-25T11:01:21;101703.34;;;18.02;45.71
71791;BME280;59638;52.126;5.434;2023-04-25T11:03:57;101720.28;;;16.04;48.51
71791;BME280;59638;52.126;5.434;2023-04-25T11:06:50;101717.81;;;15.11;51.27
71791;BME280;59638;52.126;5.434;2023-04-25T11:09:32;101716.56;;;14.20;50.71
71791;BME280;59638;52.126;5.434;2023-04-25T11:11:59;101726.38;;;12.89;56.06
71791;BME280;59638;52.126;5.434;2023-04-25T11:14:26;101737.91;;;11.70;59.82
71791;BME280;59638;52.126;5.434;2023-04-25T11:16:54;101759.03;;;10.81;63.72
71791;BME280;59638;52.126;5.434;2023-04-25T11:19:26;101766.38;;;10.05;66.70
71791;BME280;59638;52.126;5.434;2023-04-25T11:21:56;101761.25;;;9.54;70.44
71791;BME280;59638;52.126;5.434;2023-04-25T11:24:31;101769.97;;;9.06;71.05
71791;BME280;59638;52.126;5.434;2023-04-25T11:26:58;101783.63;;;8.85;71.37
71791;BME280;59638;52.126;5.434;2023-04-25T11:29:29;101786.31;;;8.71;72.56
71791;BME280;59638;52.126;5.434;2023-04-25T11:31:56;101783.38;;;8.63;74.71
71791;BME280;59638;52.126;5.434;2023-04-25T11:34:28;101789.44;;;8.51;75.24
71791;BME280;59638;52.126;5.434;2023-04-25T11:36:56;101780.69;;;8.23;75.23
71791;BME280;59638;52.126;5.434;2023-04-25T11:39:26;101775.44;;;8.23;75.60
71791;BME280;59638;52.126;5.434;2023-04-25T11:41:54;101777.50;;;8.18;76.63
71791;BME280;59638;52.126;5.434;2023-04-25T11:44:21;101780.28;;;8.29;76.35
71791;BME280;59638;52.126;5.434;2023-04-25T11:46:48;101787.34;;;8.56;76.04
71791;BME280;59638;52.126;5.434;2023-04-25T11:49:15;101781.94;;;8.84;75.81
71791;BME280;59638;52.126;5.434;2023-04-25T11:51:43;101786.78;;;9.41;74.13
71791;BME280;59638;52.126;5.434;2023-04-25T11:54:10;101775.91;;;11.25;69.76
71791;BME280;59638;52.126;5.434;2023-04-25T11:56:41;101776.09;;;12.00;65.03
71791;BME280;59638;52.126;5.434;2023-04-25T11:59:08;101766.09;;;13.10;61.45
71791;BME280;59638;52.126;5.434;2023-04-25T12:01:37;101758.91;;;13.52;60.40
71791;BME280;59638;52.126;5.434;2023-04-25T12:04:14;101763.94;;;13.55;59.35
71791;BME280;59638;52.126;5.434;2023-04-25T12:06:43;101767.91;;;13.40;59.10
71791;BME280;59638;52.126;5.434;2023-04-25T12:09:11;101760.84;;;13.50;59.18
71791;BME280;59638;52.126;5.434;2023-04-25T12:11:43;101751.53;;;13.65;61.73
71791;BME280;59638;52.126;5.434;2023-04-25T12:14:10;101755.72;;;13.58;59.47
71791;BME280;59638;52.126;5.434;2023-04-25T12:16:44;101766.44;;;12.74;59.63
71791;BME280;59638;52.126;5.434;2023-04-25T12:19:15;101784.31;;;11.86;61.91
71791;BME280;59638;52.126;5.434;2023-04-25T12:21:42;101774.88;;;12.15;59.95
71791;BME280;59638;52.126;5.434;2023-04-25T12:24:18;101782.19;;;12.55;59.72
71791;BME280;59638;52.126;5.434;2023-04-25T12:26:52;101788.81;;;12.29;57.33
71791;BME280;59638;52.126;5.434;2023-04-25T12:29:21;101790.72;;;11.83;58.18
71791;BME280;59638;52.126;5.434;2023-04-25T12:31:49;101796.09;;;11.70;59.47
71791;BME280;59638;52.126;5.434;2023-04-25T12:34:20;101790.78;;;11.03;60.07
71791;BME280;59638;52.126;5.434;2023-04-25T12:36:47;101798.69;;;10.92;62.40
71791;BME280;59638;52.126;5.434;2023-04-25T12:39:21;101789.13;;;11.25;62.17
71791;BME280;59638;52.126;5.434;2023-04-25T12:41:48;101790.69;;;11.16;61.07
71791;BME280;59638;52.126;5.434;2023-04-25T12:44:15;101785.28;;;11.51;61.57
71791;BME280;59638;52.126;5.434;2023-04-25T12:46:42;101788.16;;;11.82;60.34
71791;BME280;59638;52.126;5.434;2023-04-25T12:49:09;101793.31;;;12.38;56.87
71791;BME280;59638;52.126;5.434;2023-04-25T12:51:44;101788.22;;;12.46;55.48
71791;BME280;59638;52.126;5.434;2023-04-25T12:54:11;101795.72;;;12.41;58.08
71791;BME280;59638;52.126;5.434;2023-04-25T12:56:37;101794.34;;;12.78;56.72
71791;BME280;59638;52.126;5.434;2023-04-25T12:59:04;101778.84;;;12.95;55.21